Time;durP1;ratioP1;P1;durP2;ratioP2;P2;SDS_P1;SDS_P2;PMS_P1;PMS_P2;Temp;Humidity;BMP_temperature;BMP_pressure;BME280_temperature;BME280_humidity;BME280_pressure;Samples;Min_cycle;Max_cycle;Signal;HPM_P1;HPM_P2
2022/07/04 00:00:30;;;;;;;14.60;3.38;;;16.10;99.90;;;;;;5006803;28;20645;-68
2022/07/04 00:02:57;;;;;;;18.98;4.60;;;16.00;99.90;;;;;;5012697;28;20030;-68
2022/07/04 00:05:24;;;;;;;24.17;4.38;;;15.90;99.90;;;;;;5018098;28;20030;-69
2022/07/04 00:07:52;;;;;;;22.85;3.78;;;15.90;99.90;;;;;;5012492;28;20030;-68
2022/07/04 00:10:22;;;;;;;19.55;2.65;;;16.00;99.90;;;;;;5014730;28;20426;-68
2022/07/04 00:12:50;;;;;;;20.58;3.22;;;16.30;99.90;;;;;;5002474;28;20041;-69
2022/07/04 00:15:18;;;;;;;16.63;3.95;;;16.50;99.90;;;;;;5018855;28;20034;-68
2022/07/04 00:17:45;;;;;;;19.00;4.00;;;16.30;99.90;;;;;;5016557;28;20037;-68
2022/07/04 00:20:13;;;;;;;14.02;2.75;;;16.10;99.90;;;;;;5004528;28;20022;-68
2022/07/04 00:22:40;;;;;;;11.48;2.00;;;16.00;99.90;;;;;;5006591;28;20029;-68
2022/07/04 00:25:08;;;;;;;15.38;3.30;;;15.90;99.90;;;;;;5002363;28;20018;-68
2022/07/04 00:27:35;;;;;;;21.65;4.28;;;15.90;99.90;;;;;;5012638;28;20030;-68
2022/07/04 00:30:04;;;;;;;20.88;3.58;;;15.90;99.90;;;;;;5004263;28;20486;-68
2022/07/04 00:32:31;;;;;;;21.45;4.20;;;15.90;99.90;;;;;;5008384;28;20030;-68
2022/07/04 00:34:59;;;;;;;29.90;4.47;;;15.90;99.90;;;;;;5018977;28;20081;-68
2022/07/04 00:37:26;;;;;;;26.70;5.07;;;15.90;99.90;;;;;;5013497;28;20161;-68
2022/07/04 00:39:55;;;;;;;30.55;4.57;;;15.90;99.90;;;;;;5014425;28;20033;-68
2022/07/04 00:42:22;;;;;;;26.15;4.80;;;16.00;99.90;;;;;;5009957;28;20030;-67
2022/07/04 00:44:49;;;;;;;22.77;4.85;;;16.00;99.90;;;;;;5016613;28;20026;-68
2022/07/04 00:47:16;;;;;;;24.17;4.18;;;16.00;99.90;;;;;;4999821;28;20042;-68
2022/07/04 00:49:44;;;;;;;17.60;3.38;;;16.10;99.90;;;;;;5007428;28;20094;-69
2022/07/04 00:52:12;;;;;;;22.13;3.10;;;16.10;99.90;;;;;;5015854;28;20018;-70
2022/07/04 00:54:40;;;;;;;15.35;3.55;;;16.20;99.90;;;;;;4995801;28;20063;-70
2022/07/04 00:57:08;;;;;;;17.85;3.83;;;16.20;99.90;;;;;;4995795;28;20029;-70
2022/07/04 00:59:35;;;;;;;18.70;2.65;;;16.30;99.90;;;;;;4996203;28;20073;-69
2022/07/04 01:02:02;;;;;;;16.20;3.38;;;16.40;99.90;;;;;;4997919;28;20383;-69
2022/07/04 01:04:29;;;;;;;17.88;3.25;;;16.30;99.90;;;;;;4996369;28;20034;-69
2022/07/04 01:06:57;;;;;;;20.15;3.85;;;16.30;99.90;;;;;;4995852;28;20499;-69
2022/07/04 01:09:24;;;;;;;24.63;3.75;;;16.30;99.90;;;;;;4994619;28;20054;-69
2022/07/04 01:11:51;;;;;;;24.55;4.78;;;16.40;99.90;;;;;;4995772;28;20034;-69
2022/07/04 01:14:19;;;;;;;22.08;4.43;;;16.60;99.90;;;;;;4995142;28;20084;-70
2022/07/04 01:16:46;;;;;;;21.90;4.38;;;16.70;99.90;;;;;;4995355;28;20529;-70
2022/07/04 01:19:13;;;;;;;23.10;4.05;;;16.70;99.90;;;;;;5003698;28;20464;-70
2022/07/04 01:21:41;;;;;;;15.73;3.45;;;16.70;99.90;;;;;;4994283;28;20085;-69
2022/07/04 01:24:11;;;;;;;18.17;3.03;;;16.70;99.90;;;;;;4999298;28;20030;-69
2022/07/04 01:26:38;;;;;;;22.75;4.22;;;16.70;99.90;;;;;;5013365;28;20030;-70
2022/07/04 01:29:05;;;;;;;14.20;3.88;;;16.70;99.90;;;;;;5012803;28;20022;-69
2022/07/04 01:31:33;;;;;;;12.48;2.83;;;16.70;99.90;;;;;;4996366;28;20037;-69
2022/07/04 01:34:00;;;;;;;16.65;2.50;;;16.60;99.90;;;;;;4997770;28;20022;-68
2022/07/04 01:36:27;;;;;;;14.95;4.03;;;16.40;99.90;;;;;;5009744;28;20034;-68
2022/07/04 01:38:56;;;;;;;22.92;4.10;;;16.30;99.90;;;;;;5011244;28;20037;-69
2022/07/04 01:41:23;;;;;;;18.58;2.90;;;16.30;99.90;;;;;;5006421;28;20513;-69
2022/07/04 01:43:50;;;;;;;18.17;3.70;;;16.20;99.90;;;;;;5001397;28;20034;-69
2022/07/04 01:46:17;;;;;;;14.88;2.15;;;16.10;99.90;;;;;;4995265;28;20054;-70
2022/07/04 01:48:45;;;;;;;28.42;5.53;;;15.90;99.90;;;;;;4994117;28;20056;-69
2022/07/04 01:51:12;;;;;;;37.08;5.93;;;16.10;99.90;;;;;;5005050;28;20042;-70
2022/07/04 01:53:39;;;;;;;43.95;6.15;;;16.10;99.90;;;;;;5005244;28;20105;-69
2022/07/04 01:56:06;;;;;;;36.10;6.40;;;16.20;99.90;;;;;;5006849;28;20096;-68
2022/07/04 01:58:33;;;;;;;32.63;5.53;;;16.10;99.90;;;;;;5006512;28;20066;-68
2022/07/04 02:03:48;;;;;;;28.95;4.85;;;16.30;99.90;;;;;;5003875;28;20041;-69
2022/07/04 02:06:16;;;;;;;29.17;5.25;;;16.30;99.90;;;;;;4994330;28;20050;-69
2022/07/04 02:13:00;;;;;;;36.83;7.68;;;16.30;99.90;;;;;;5013511;28;20045;-69
2022/07/04 02:14:16;;;;;;;34.28;5.18;;;16.30;99.90;;;;;;5000185;28;20026;-69
2022/07/04 02:16:43;;;;;;;33.47;4.25;;;16.40;99.90;;;;;;4997242;28;20030;-68
2022/07/04 02:19:10;;;;;;;47.00;7.97;;;16.50;99.90;;;;;;5006385;28;20471;-70
2022/07/04 02:21:38;;;;;;;43.85;8.95;;;16.50;99.90;;;;;;5013531;28;20026;-69
2022/07/04 02:24:05;;;;;;;41.17;6.03;;;16.50;99.90;;;;;;5013036;28;20053;-69
2022/07/04 02:26:32;;;;;;;33.15;5.35;;;16.50;99.90;;;;;;5000851;28;20448;-69
2022/07/04 02:29:00;;;;;;;27.70;5.45;;;16.50;99.90;;;;;;4994418;28;20483;-70
2022/07/04 02:31:27;;;;;;;39.13;6.63;;;16.60;99.90;;;;;;4994207;28;20026;-69
2022/07/04 02:33:54;;;;;;;27.27;6.22;;;16.70;99.90;;;;;;4998861;28;20030;-69
2022/07/04 02:36:22;;;;;;;32.72;7.32;;;16.80;99.90;;;;;;4996074;28;20030;-69
2022/07/04 02:38:49;;;;;;;27.17;5.43;;;16.80;99.90;;;;;;5009126;28;20030;-68
2022/07/04 02:41:16;;;;;;;31.88;6.97;;;16.80;99.90;;;;;;5002064;28;20113;-68
2022/07/04 02:43:43;;;;;;;26.25;5.47;;;16.80;99.90;;;;;;4999037;28;20057;-68
2022/07/04 02:46:11;;;;;;;30.13;6.03;;;16.80;99.90;;;;;;4997606;28;20173;-68
2022/07/04 02:48:38;;;;;;;37.97;7.28;;;17.00;99.90;;;;;;4997532;28;20022;-69
2022/07/04 02:51:05;;;;;;;26.38;3.33;;;17.30;99.90;;;;;;5014516;28;20034;-69
2022/07/04 02:53:32;;;;;;;22.17;4.68;;;17.20;99.90;;;;;;5006940;28;20030;-69
2022/07/04 02:56:03;;;;;;;20.33;3.63;;;17.30;99.90;;;;;;4995758;28;20031;-70
2022/07/04 02:58:32;;;;;;;21.52;2.75;;;17.30;99.90;;;;;;5003396;28;20113;-69
2022/07/04 03:01:00;;;;;;;26.65;2.92;;;17.40;99.90;;;;;;4995405;28;20065;-70
2022/07/04 03:03:27;;;;;;;26.60;4.25;;;17.30;99.90;;;;;;4995439;28;20387;-70
2022/07/04 03:05:55;;;;;;;20.20;4.40;;;17.20;99.90;;;;;;4992995;28;20515;-70
2022/07/04 03:08:22;;;;;;;22.73;4.13;;;17.20;99.90;;;;;;5001389;28;20077;-68
2022/07/04 03:10:52;;;;;;;25.25;3.25;;;17.30;99.90;;;;;;5003968;28;20026;-70
2022/07/04 03:13:20;;;;;;;24.25;3.38;;;17.20;99.90;;;;;;4993680;28;20480;-70
2022/07/04 03:15:47;;;;;;;27.90;4.97;;;17.30;99.90;;;;;;4997850;28;20085;-71
2022/07/04 03:18:15;;;;;;;25.23;4.13;;;17.40;99.90;;;;;;5012610;28;20471;-69
2022/07/04 03:20:42;;;;;;;24.92;4.82;;;17.50;99.90;;;;;;4997364;28;20037;-70
2022/07/04 03:23:09;;;;;;;24.08;3.75;;;17.50;99.90;;;;;;4998453;28;20029;-69
2022/07/04 03:25:37;;;;;;;29.27;5.25;;;17.60;99.90;;;;;;5013388;28;20057;-69
2022/07/04 03:28:04;;;;;;;24.48;3.10;;;17.60;99.90;;;;;;5008836;28;20105;-69
2022/07/04 03:30:31;;;;;;;18.38;2.95;;;17.50;99.90;;;;;;4997418;28;20033;-70
2022/07/04 03:32:59;;;;;;;17.55;3.78;;;17.60;99.90;;;;;;4998331;28;20042;-70
2022/07/04 03:35:27;;;;;;;19.60;3.15;;;17.70;99.90;;;;;;4998483;28;20053;-70
2022/07/04 03:37:55;;;;;;;19.25;2.17;;;17.70;99.90;;;;;;4998905;28;20763;-70
2022/07/04 03:40:23;;;;;;;20.17;2.65;;;17.80;99.90;;;;;;5002812;28;20038;-71
2022/07/04 03:42:50;;;;;;;16.75;3.08;;;17.90;99.90;;;;;;5003406;28;20085;-71
2022/07/04 03:45:17;;;;;;;11.30;2.30;;;18.10;99.90;;;;;;5011048;28;20029;-71
2022/07/04 03:47:44;;;;;;;13.57;2.78;;;17.90;99.90;;;;;;5001955;28;20030;-71
2022/07/04 03:50:12;;;;;;;9.50;1.15;;;17.80;99.90;;;;;;5012050;28;20109;-70
2022/07/04 03:52:39;;;;;;;16.20;2.10;;;17.80;99.90;;;;;;5001595;28;20038;-71
2022/07/04 03:55:07;;;;;;;17.40;2.85;;;17.70;99.90;;;;;;5006073;28;20057;-70
2022/07/04 03:57:34;;;;;;;19.33;2.22;;;17.60;99.90;;;;;;5005211;28;20112;-71
2022/07/04 04:00:02;;;;;;;9.07;1.63;;;17.50;99.90;;;;;;5007513;28;20034;-69
2022/07/04 04:02:30;;;;;;;10.80;2.38;;;17.10;99.90;;;;;;5010212;28;20041;-71
2022/07/04 04:07:43;;;;;;;15.10;2.97;;;16.50;99.90;;;;;;5011143;28;20080;-70
2022/07/04 04:10:11;;;;;;;14.20;2.20;;;16.50;99.90;;;;;;5011782;28;20443;-70
2022/07/04 04:12:38;;;;;;;22.52;4.03;;;16.60;99.90;;;;;;5000898;28;20053;-70
2022/07/04 04:15:06;;;;;;;25.23;4.53;;;16.60;99.90;;;;;;5007191;28;20026;-70
2022/07/04 04:17:33;;;;;;;19.27;2.88;;;16.60;99.90;;;;;;5006755;28;20552;-69
2022/07/04 04:20:00;;;;;;;25.33;3.60;;;16.60;99.90;;;;;;5014540;28;20030;-69
2022/07/04 04:22:31;;;;;;;26.02;4.55;;;16.60;99.90;;;;;;5007302;28;20042;-69
2022/07/04 04:24:58;;;;;;;23.05;3.55;;;16.60;99.90;;;;;;5004730;28;20018;-68
2022/07/04 04:27:26;;;;;;;24.83;3.22;;;16.60;99.90;;;;;;5001375;28;20026;-69
2022/07/04 04:29:53;;;;;;;25.83;3.55;;;16.50;99.90;;;;;;5000329;28;20031;-70
2022/07/04 04:32:21;;;;;;;25.73;3.97;;;16.50;99.90;;;;;;5012614;28;20041;-69
2022/07/04 04:34:49;;;;;;;28.25;3.80;;;16.60;99.90;;;;;;5008153;28;20021;-69
2022/07/04 04:37:16;;;;;;;27.95;3.65;;;16.60;99.90;;;;;;5007775;28;20696;-70
2022/07/04 04:39:43;;;;;;;22.10;3.17;;;16.60;99.90;;;;;;5007121;28;20506;-70
2022/07/04 04:42:10;;;;;;;22.77;3.40;;;16.50;99.90;;;;;;5013831;28;20102;-70
2022/07/04 04:44:38;;;;;;;20.45;3.20;;;16.50;99.90;;;;;;5014271;28;20089;-70
2022/07/04 04:47:05;;;;;;;28.77;3.55;;;16.60;99.90;;;;;;5012514;28;20046;-70
2022/07/04 04:49:32;;;;;;;24.90;3.78;;;16.70;99.90;;;;;;5007777;28;20030;-68
2022/07/04 04:51:59;;;;;;;16.85;2.55;;;16.70;99.90;;;;;;5013424;28;20102;-69
2022/07/04 04:54:26;;;;;;;23.73;4.07;;;16.70;99.90;;;;;;5014759;28;20070;-68
2022/07/04 04:56:54;;;;;;;22.63;4.00;;;16.70;99.90;;;;;;5000804;28;20132;-69
2022/07/04 04:59:21;;;;;;;24.73;2.50;;;16.70;99.90;;;;;;5007211;28;20055;-70
2022/07/04 05:01:48;;;;;;;19.15;2.80;;;16.70;99.90;;;;;;5013911;28;20026;-70
2022/07/04 05:04:16;;;;;;;24.23;2.88;;;16.60;99.90;;;;;;5004125;28;20084;-71
2022/07/04 05:06:44;;;;;;;23.35;3.08;;;16.60;99.90;;;;;;5005842;28;20021;-69
2022/07/04 05:09:11;;;;;;;31.15;3.65;;;16.50;99.90;;;;;;5009113;28;20034;-70
2022/07/04 05:11:38;;;;;;;23.10;3.03;;;16.50;99.90;;;;;;5009170;28;20025;-69
2022/07/04 05:14:05;;;;;;;21.15;4.45;;;16.50;99.90;;;;;;5006533;28;20018;-70
2022/07/04 05:16:32;;;;;;;29.15;4.22;;;16.50;99.90;;;;;;5005100;28;20057;-69
2022/07/04 05:19:00;;;;;;;30.45;4.20;;;16.50;99.90;;;;;;5001072;28;20041;-69
2022/07/04 05:21:28;;;;;;;17.77;2.97;;;16.50;99.90;;;;;;5002433;28;20026;-71
2022/07/04 05:23:56;;;;;;;26.40;2.90;;;16.40;99.90;;;;;;5007665;28;20033;-70
2022/07/04 05:26:24;;;;;;;28.10;5.57;;;16.50;99.90;;;;;;5004649;28;20084;-70
2022/07/04 05:28:51;;;;;;;24.02;3.80;;;16.50;99.90;;;;;;5003660;28;20022;-69
2022/07/04 05:31:18;;;;;;;17.48;3.75;;;16.50;99.90;;;;;;5008767;28;20417;-70
2022/07/04 05:33:46;;;;;;;23.95;3.75;;;16.50;99.90;;;;;;5001452;28;20023;-69
2022/07/04 05:36:13;;;;;;;20.40;2.83;;;16.50;99.90;;;;;;5011111;28;20433;-72
2022/07/04 05:38:40;;;;;;;16.75;2.90;;;16.30;99.90;;;;;;5002325;28;20042;-69
2022/07/04 05:41:08;;;;;;;11.68;2.40;;;16.30;99.90;;;;;;5000747;28;20056;-69
2022/07/04 05:43:35;;;;;;;13.60;2.80;;;16.20;99.90;;;;;;5005373;28;20399;-69
2022/07/04 05:46:03;;;;;;;21.02;1.98;;;16.20;99.90;;;;;;4996606;28;20046;-70
2022/07/04 05:48:30;;;;;;;21.77;4.20;;;16.20;99.90;;;;;;5001655;28;20026;-68
2022/07/04 05:50:57;;;;;;;25.38;3.65;;;16.20;99.90;;;;;;5004264;28;20024;-68
2022/07/04 05:53:25;;;;;;;29.48;4.22;;;16.30;99.90;;;;;;5008481;28;20038;-69
2022/07/04 05:55:52;;;;;;;33.55;5.28;;;16.30;99.90;;;;;;5013436;28;20054;-69
2022/07/04 05:58:22;;;;;;;34.70;3.92;;;16.30;99.90;;;;;;5001998;28;20031;-70
2022/07/04 06:00:49;;;;;;;27.08;3.88;;;16.20;99.90;;;;;;5000164;28;20391;-70
2022/07/04 06:03:16;;;;;;;30.33;3.97;;;16.20;99.90;;;;;;5002431;28;20025;-70
2022/07/04 06:05:44;;;;;;;26.40;3.67;;;16.20;99.90;;;;;;5004384;28;20165;-70
2022/07/04 06:08:11;;;;;;;17.83;2.35;;;16.00;99.90;;;;;;4999938;28;20041;-70
2022/07/04 06:10:38;;;;;;;18.10;3.70;;;15.90;99.90;;;;;;5016282;28;20026;-70
2022/07/04 06:13:05;;;;;;;19.50;2.58;;;15.90;99.90;;;;;;5010809;28;20561;-70
2022/07/04 06:15:33;;;;;;;21.63;3.17;;;15.90;99.90;;;;;;5012760;28;20026;-71
2022/07/04 06:18:01;;;;;;;15.40;3.35;;;15.90;99.90;;;;;;5009650;28;20108;-70
2022/07/04 06:20:29;;;;;;;21.23;2.83;;;15.90;99.90;;;;;;5000252;28;20045;-70
2022/07/04 06:22:56;;;;;;;23.85;3.40;;;15.90;99.90;;;;;;5011804;28;20487;-70
2022/07/04 06:25:24;;;;;;;21.60;3.15;;;15.90;99.90;;;;;;5008291;28;20037;-70
2022/07/04 06:27:52;;;;;;;15.90;3.00;;;15.90;99.90;;;;;;5011353;28;20034;-71
2022/07/04 06:30:19;;;;;;;21.52;2.58;;;15.90;99.90;;;;;;5002260;28;20116;-70
2022/07/04 06:32:48;;;;;;;26.52;4.57;;;15.90;99.90;;;;;;5026121;28;20034;-71
2022/07/04 06:38:06;;;;;;;22.52;2.97;;;15.90;99.90;;;;;;5003666;28;20110;-71
2022/07/04 06:40:35;;;;;;;32.72;4.72;;;15.90;99.90;;;;;;5004894;28;20129;-71
2022/07/04 06:43:03;;;;;;;18.90;2.83;;;15.80;99.90;;;;;;4997202;28;20049;-70
2022/07/04 06:45:31;;;;;;;21.13;3.40;;;15.80;99.90;;;;;;5012573;28;20045;-71
2022/07/04 06:48:00;;;;;;;22.00;3.45;;;15.80;99.90;;;;;;5005707;28;20491;-72
2022/07/04 06:50:27;;;;;;;18.15;2.65;;;15.80;99.90;;;;;;4994245;28;20026;-72
2022/07/04 06:52:54;;;;;;;18.75;2.67;;;15.80;99.90;;;;;;5005334;28;20034;-72
2022/07/04 06:55:41;;;;;;;25.35;2.95;;;15.80;99.90;;;;;;5010945;28;20025;-71
2022/07/04 06:58:09;;;;;;;22.02;3.30;;;15.80;99.90;;;;;;4999085;28;20026;-72
2022/07/04 07:00:37;;;;;;;17.92;2.00;;;15.80;99.90;;;;;;5006341;28;20493;-71
2022/07/04 07:03:04;;;;;;;15.48;2.42;;;15.80;99.90;;;;;;5011316;28;20101;-70
2022/07/04 07:05:32;;;;;;;17.98;2.10;;;15.70;99.90;;;;;;5019583;28;20492;-70
2022/07/04 07:08:00;;;;;;;9.20;1.15;;;15.60;99.90;;;;;;5018256;28;20025;-71
2022/07/04 07:10:27;;;;;;;15.13;1.95;;;15.60;99.90;;;;;;5013899;28;20030;-70
2022/07/04 07:12:54;;;;;;;6.68;1.80;;;15.50;99.90;;;;;;5009343;28;20034;-71
2022/07/04 07:15:21;;;;;;;12.95;1.35;;;15.40;99.90;;;;;;5010238;28;20038;-70
2022/07/04 07:17:48;;;;;;;6.15;1.80;;;15.40;99.90;;;;;;5005766;28;20107;-70
2022/07/04 07:20:16;;;;;;;8.25;1.10;;;15.40;99.90;;;;;;5020616;28;20034;-72
2022/07/04 07:22:43;;;;;;;9.18;2.05;;;15.40;99.90;;;;;;5016317;28;20115;-72
2022/07/04 07:25:11;;;;;;;12.57;2.72;;;15.40;99.90;;;;;;5012887;28;20029;-71
2022/07/04 07:27:40;;;;;;;16.17;2.50;;;15.40;99.90;;;;;;5015462;28;20026;-72
2022/07/04 07:30:08;;;;;;;17.95;2.80;;;15.40;99.90;;;;;;5014114;28;20390;-71
2022/07/04 07:32:35;;;;;;;15.70;2.78;;;15.40;99.90;;;;;;5017768;28;20021;-71
2022/07/04 07:35:03;;;;;;;21.65;3.78;;;15.40;99.90;;;;;;5017614;28;20105;-72
2022/07/04 07:37:30;;;;;;;21.23;3.33;;;15.50;99.90;;;;;;5018526;28;20033;-71
2022/07/04 07:39:58;;;;;;;35.45;4.63;;;15.50;99.90;;;;;;5009876;28;20034;-70
2022/07/04 07:42:25;;;;;;;30.75;4.47;;;15.60;99.90;;;;;;5014868;28;20026;-72
2022/07/04 07:44:53;;;;;;;24.20;3.75;;;15.50;99.90;;;;;;5010887;28;20481;-72
2022/07/04 07:47:20;;;;;;;37.58;8.82;;;15.50;99.90;;;;;;5013889;28;20065;-73
2022/07/04 07:49:47;;;;;;;29.65;4.45;;;15.50;99.90;;;;;;5007319;28;20022;-73
2022/07/04 07:52:16;;;;;;;20.27;4.32;;;15.50;99.90;;;;;;5016866;28;20118;-71
2022/07/04 07:54:43;;;;;;;25.25;6.55;;;15.60;99.90;;;;;;5011502;28;20113;-72
2022/07/04 07:57:10;;;;;;;14.13;3.55;;;15.50;99.90;;;;;;5001967;28;20029;-72
2022/07/04 07:59:38;;;;;;;23.40;3.92;;;15.40;99.90;;;;;;5017576;28;20518;-73
2022/07/04 08:02:05;;;;;;;21.23;4.05;;;15.50;99.90;;;;;;5015811;28;20521;-73
2022/07/04 08:04:37;;;;;;;17.60;2.97;;;15.50;99.90;;;;;;5011726;28;20022;-73
2022/07/04 08:07:05;;;;;;;23.85;4.25;;;15.50;99.90;;;;;;5008250;28;20628;-73
2022/07/04 08:09:34;;;;;;;28.58;4.38;;;15.50;99.90;;;;;;5019197;28;20026;-72
2022/07/04 08:12:03;;;;;;;28.50;5.10;;;15.50;99.90;;;;;;5019386;28;20030;-73
2022/07/04 08:14:30;;;;;;;32.30;4.50;;;15.60;99.90;;;;;;5004938;28;20030;-73
2022/07/04 08:16:58;;;;;;;19.02;3.72;;;15.60;99.90;;;;;;5003495;28;20030;-71
2022/07/04 08:19:26;;;;;;;16.65;2.35;;;15.40;99.90;;;;;;5006774;28;20116;-71
2022/07/04 08:21:54;;;;;;;16.27;2.95;;;15.30;99.90;;;;;;5009792;28;20057;-71
2022/07/04 08:24:22;;;;;;;19.95;3.10;;;15.30;99.90;;;;;;5009356;28;20026;-71
2022/07/04 08:26:49;;;;;;;16.52;3.20;;;15.30;99.90;;;;;;5003311;28;20038;-72
2022/07/04 08:29:21;;;;;;;27.85;8.05;;;15.40;99.90;;;;;;5011024;28;20014;-70
2022/07/04 08:31:48;;;;;;;23.08;8.77;;;15.50;99.90;;;;;;5010064;28;20042;-71
2022/07/04 08:34:16;;;;;;;40.20;6.75;;;15.50;99.90;;;;;;5008175;28;20640;-71
2022/07/04 08:36:43;;;;;;;33.35;7.53;;;15.50;99.90;;;;;;5004419;28;20112;-71
2022/07/04 08:39:10;;;;;;;26.17;5.95;;;15.50;99.90;;;;;;5000228;28;20026;-72
2022/07/04 08:41:40;;;;;;;24.80;5.78;;;15.50;99.90;;;;;;5000805;28;20122;-69
2022/07/04 08:44:12;;;;;;;30.15;5.38;;;15.50;99.90;;;;;;5002607;28;20018;-72
2022/07/04 08:46:41;;;;;;;22.02;4.18;;;15.50;99.90;;;;;;5008279;28;20068;-70
2022/07/04 08:49:19;;;;;;;26.42;5.43;;;15.60;99.90;;;;;;5007871;28;20026;-71
2022/07/04 08:52:04;;;;;;;22.88;5.07;;;15.60;99.90;;;;;;5001664;28;20022;-70
2022/07/04 09:00:06;;;;;;;27.67;5.38;;;15.70;99.90;;;;;;5014399;28;20045;-71
2022/07/04 09:02:37;;;;;;;34.10;5.20;;;15.70;99.90;;;;;;5012414;28;20028;-71
2022/07/04 09:05:06;;;;;;;36.13;8.63;;;15.70;99.90;;;;;;5012940;28;20518;-71
2022/07/04 09:07:33;;;;;;;25.30;4.85;;;15.80;99.90;;;;;;5016747;28;20038;-71
2022/07/04 09:10:02;;;;;;;21.95;4.57;;;15.80;99.90;;;;;;5016414;28;20062;-70
2022/07/04 09:12:30;;;;;;;19.58;3.83;;;15.70;99.90;;;;;;5004931;28;20030;-69
2022/07/04 09:14:59;;;;;;;19.73;2.90;;;15.60;99.90;;;;;;5017195;28;20394;-71
2022/07/04 09:17:27;;;;;;;21.88;4.03;;;15.50;99.90;;;;;;5014285;28;20034;-71
2022/07/04 09:20:18;;;;;;;21.83;4.18;;;15.60;99.90;;;;;;5014058;28;20138;-71
2022/07/04 09:22:47;;;;;;;19.40;4.03;;;15.50;99.90;;;;;;5015923;28;20026;-71
2022/07/04 09:25:15;;;;;;;24.58;4.43;;;15.60;99.90;;;;;;5014177;28;20113;-72
2022/07/04 09:27:48;;;;;;;16.85;4.22;;;15.70;99.90;;;;;;4999134;28;20058;-71
2022/07/04 09:30:19;;;;;;;21.85;3.95;;;15.70;99.90;;;;;;5009468;28;20080;-71
2022/07/04 09:32:52;;;;;;;22.92;3.35;;;15.70;99.90;;;;;;5013365;28;20017;-72
2022/07/04 09:35:22;;;;;;;16.40;2.40;;;15.60;99.90;;;;;;5010393;28;20076;-71
2022/07/04 09:37:55;;;;;;;24.13;3.95;;;15.60;99.90;;;;;;5007728;28;20030;-72
2022/07/04 09:40:27;;;;;;;18.27;3.40;;;15.70;99.90;;;;;;5013650;28;20073;-72
2022/07/04 09:42:56;;;;;;;25.95;4.47;;;15.70;99.90;;;;;;5007568;28;20387;-71
2022/07/04 09:45:26;;;;;;;22.63;4.22;;;15.60;99.90;;;;;;5001848;28;20083;-70
2022/07/04 09:47:59;;;;;;;22.75;3.08;;;15.60;99.90;;;;;;5017927;28;20434;-69
2022/07/04 09:50:31;;;;;;;25.58;3.58;;;15.50;99.90;;;;;;5017891;28;20083;-69
2022/07/04 09:53:01;;;;;;;21.30;3.83;;;15.50;99.90;;;;;;5013207;28;20364;-70
2022/07/04 09:55:39;;;;;;;24.73;4.18;;;15.50;99.90;;;;;;5010207;28;20121;-71
2022/07/04 09:58:08;;;;;;;26.73;4.70;;;15.40;99.90;;;;;;5008181;28;20034;-69
2022/07/04 10:00:38;;;;;;;19.17;3.63;;;15.40;99.90;;;;;;5000006;28;20084;-69
2022/07/04 10:03:25;;;;;;;21.67;4.65;;;15.40;99.90;;;;;;5006951;28;20037;-69
2022/07/04 10:06:12;;;;;;;24.40;3.45;;;15.30;99.90;;;;;;5016602;28;20037;-70
2022/07/04 10:08:43;;;;;;;25.38;4.20;;;15.30;99.90;;;;;;5018521;28;20034;-68
2022/07/04 10:11:11;;;;;;;22.35;3.88;;;15.30;99.90;;;;;;5018945;28;20036;-69
2022/07/04 10:13:39;;;;;;;19.17;2.65;;;15.10;99.90;;;;;;5017245;28;20425;-70
2022/07/04 10:16:09;;;;;;;26.38;2.65;;;15.10;99.90;;;;;;5014151;28;20474;-70
2022/07/04 10:18:37;;;;;;;18.02;4.03;;;15.10;99.90;;;;;;5012535;28;20037;-70
2022/07/04 10:21:04;;;;;;;19.08;3.95;;;15.20;99.90;;;;;;5013322;28;20631;-70
2022/07/04 10:23:33;;;;;;;26.20;3.58;;;15.20;99.90;;;;;;5000698;28;20510;-70
2022/07/04 10:26:02;;;;;;;16.90;3.13;;;15.20;99.90;;;;;;5011937;28;20083;-70
2022/07/04 10:28:29;;;;;;;17.55;3.65;;;15.30;99.90;;;;;;5010429;28;20549;-69
2022/07/04 10:30:58;;;;;;;23.73;3.95;;;15.30;99.90;;;;;;5012132;28;20033;-70
2022/07/04 10:33:28;;;;;;;19.20;3.25;;;15.20;99.90;;;;;;5012760;28;20386;-69
2022/07/04 10:36:04;;;;;;;20.55;3.65;;;15.20;99.90;;;;;;5005944;28;20033;-70
2022/07/04 10:38:55;;;;;;;25.92;3.60;;;15.20;99.90;;;;;;4996865;28;20088;-70
2022/07/04 10:41:24;;;;;;;19.15;4.15;;;15.20;99.90;;;;;;5013200;28;20044;-70
2022/07/04 10:44:09;;;;;;;27.27;4.00;;;15.20;99.90;;;;;;5009315;28;20026;-70
2022/07/04 10:46:57;;;;;;;18.73;3.55;;;15.20;99.90;;;;;;5012377;28;20403;-70
2022/07/04 10:49:28;;;;;;;24.70;3.60;;;15.20;99.90;;;;;;5005017;28;20080;-70
2022/07/04 10:52:16;;;;;;;30.75;4.40;;;15.10;99.90;;;;;;4994342;28;20487;-70
2022/07/04 10:54:44;;;;;;;23.77;4.40;;;15.20;99.90;;;;;;4996077;28;20038;-69
2022/07/04 10:57:23;;;;;;;23.00;3.13;;;15.20;99.90;;;;;;5001303;28;20060;-69
2022/07/04 11:00:00;;;;;;;22.75;4.07;;;15.20;99.90;;;;;;5016052;28;20022;-69
2022/07/04 11:02:34;;;;;;;21.90;3.45;;;15.20;99.90;;;;;;5008127;28;20372;-68
2022/07/04 11:05:10;;;;;;;25.15;4.50;;;15.20;99.90;;;;;;4993591;28;20068;-69
2022/07/04 11:07:39;;;;;;;23.27;5.15;;;15.20;99.90;;;;;;5013007;28;20025;-68
2022/07/04 11:10:12;;;;;;;31.95;4.60;;;15.20;99.90;;;;;;5011281;28;20105;-69
2022/07/04 11:13:15;;;;;;;24.00;4.50;;;15.20;99.90;;;;;;5009723;28;20034;-67
2022/07/04 11:15:46;;;;;;;24.58;3.67;;;15.20;99.90;;;;;;4959943;28;20049;-69
2022/07/04 11:18:14;;;;;;;32.65;5.72;;;15.20;99.90;;;;;;5013190;28;20105;-69
2022/07/04 11:20:49;;;;;;;26.70;6.55;;;15.20;99.90;;;;;;5012535;28;20040;-70
2022/07/04 11:23:21;;;;;;;25.40;4.20;;;15.20;99.90;;;;;;5013415;28;20075;-70
2022/07/04 11:25:54;;;;;;;22.40;4.03;;;15.20;99.90;;;;;;5006665;28;20022;-70
2022/07/04 11:28:28;;;;;;;27.73;4.22;;;15.20;99.90;;;;;;5011943;28;20029;-70
2022/07/04 11:30:57;;;;;;;28.83;5.40;;;15.10;99.90;;;;;;5008357;28;20026;-69
2022/07/04 11:33:26;;;;;;;25.08;3.08;;;15.10;99.90;;;;;;5005782;28;20035;-70
2022/07/04 11:36:03;;;;;;;19.38;2.83;;;15.00;99.90;;;;;;5006816;28;20025;-71
2022/07/04 11:38:53;;;;;;;27.95;3.95;;;14.90;99.90;;;;;;5017314;28;20018;-70
2022/07/04 11:47:10;;;;;;;38.67;6.05;;;15.10;99.90;;;;;;4998653;28;20082;-71
2022/07/04 11:49:43;;;;;;;28.70;4.57;;;15.10;99.90;;;;;;5009493;28;20026;-71
2022/07/04 11:52:10;;;;;;;25.75;3.35;;;15.20;99.90;;;;;;5015727;28;20022;-71
2022/07/04 11:54:38;;;;;;;27.45;4.18;;;15.10;99.90;;;;;;5013441;28;20044;-70
2022/07/04 11:57:10;;;;;;;27.40;4.30;;;15.00;99.90;;;;;;5007890;28;20031;-71
2022/07/04 11:59:38;;;;;;;29.27;3.90;;;14.90;99.90;;;;;;5003950;28;20096;-72
2022/07/04 12:02:13;;;;;;;27.58;3.22;;;15.00;99.90;;;;;;5006800;28;20527;-72
2022/07/04 12:04:42;;;;;;;26.58;3.42;;;15.00;99.90;;;;;;5001359;28;20035;-71
2022/07/04 12:07:16;;;;;;;23.85;4.15;;;15.00;99.90;;;;;;5007826;28;20025;-71
2022/07/04 12:09:45;;;;;;;28.98;4.57;;;15.00;99.90;;;;;;5012494;28;20030;-71
2022/07/04 12:12:14;;;;;;;24.17;4.38;;;15.00;99.90;;;;;;5009192;28;20030;-71
2022/07/04 12:15:07;;;;;;;40.70;5.50;;;15.10;99.90;;;;;;5011732;28;20077;-71
2022/07/04 12:17:40;;;;;;;29.08;3.58;;;15.10;99.90;;;;;;5003515;28;20030;-71
2022/07/04 12:20:19;;;;;;;34.63;5.97;;;15.10;99.90;;;;;;5004198;28;20018;-71
2022/07/04 12:22:57;;;;;;;29.60;4.45;;;15.10;99.90;;;;;;5011315;28;20395;-70
2022/07/04 12:25:29;;;;;;;25.08;4.35;;;15.10;99.90;;;;;;4999164;28;20021;-70
2022/07/04 12:28:02;;;;;;;21.88;4.40;;;15.10;99.90;;;;;;5012985;28;20022;-71
2022/07/04 12:30:34;;;;;;;23.35;3.10;;;15.10;99.90;;;;;;5011996;28;20015;-71
2022/07/04 12:33:04;;;;;;;30.42;4.72;;;15.10;99.90;;;;;;5001414;28;20022;-70
2022/07/04 12:35:50;;;;;;;25.00;4.80;;;15.10;99.90;;;;;;5006462;28;20029;-70
2022/07/04 12:38:39;;;;;;;35.53;4.93;;;15.10;99.90;;;;;;5014191;28;20549;-70
2022/07/04 12:41:15;;;;;;;20.63;4.45;;;15.10;99.90;;;;;;4998499;28;20504;-71
2022/07/04 12:43:42;;;;;;;29.88;5.47;;;15.20;99.90;;;;;;4998900;28;20562;-69
2022/07/04 12:46:15;;;;;;;29.17;4.75;;;15.10;99.90;;;;;;5015321;28;20494;-69
2022/07/04 12:48:43;;;;;;;40.70;5.45;;;15.10;99.90;;;;;;5003441;28;20372;-69
2022/07/04 12:51:13;;;;;;;32.95;5.03;;;15.20;99.90;;;;;;5012195;28;20017;-70
2022/07/04 12:53:41;;;;;;;43.78;7.18;;;15.20;99.90;;;;;;5011067;28;20030;-70
2022/07/04 12:56:10;;;;;;;32.00;4.88;;;15.10;99.90;;;;;;5010165;28;20010;-69
2022/07/04 12:58:37;;;;;;;45.40;5.53;;;15.10;99.90;;;;;;5006415;28;20491;-70
2022/07/04 13:01:04;;;;;;;36.20;5.10;;;15.20;99.90;;;;;;5001628;28;20085;-70
2022/07/04 13:03:32;;;;;;;33.70;5.30;;;15.20;99.90;;;;;;5007699;28;20101;-70
2022/07/04 13:05:59;;;;;;;31.33;5.40;;;15.10;99.90;;;;;;5003617;28;20050;-70
2022/07/04 13:08:26;;;;;;;26.30;4.38;;;15.00;99.90;;;;;;5011992;28;20084;-69
2022/07/04 13:12:23;;;;;;;31.65;3.85;;;14.90;99.90;;;;;;5016567;28;20494;-70